MDT,Max TemperatureF,Mean TemperatureF,Min TemperatureF,Max Dew PointF,MeanDew PointF,Min DewpointF,Max Humidity, Mean Humidity, Min Humidity, Max Sea Level PressureIn, Mean Sea Level PressureIn, Min Sea Level PressureIn, Max VisibilityMiles, Mean VisibilityMiles, Min VisibilityMiles, Max Wind SpeedMPH, Mean Wind SpeedMPH, Max Gust SpeedMPH,PrecipitationIn, CloudCover, Events, WindDirDegrees
2012-9-1,89,77,63,45,42,38,52,29,18,30.05,29.78,29.72,10,10,10,21,11,37,0.00,1,Thunderstorm,265
2012-9-2,82,68,54,44,37,27,66,36,16,29.98,29.93,29.88,10,10,10,12,6,18,0.00,0,,304
2012-9-3,81,70,57,30,23,20,31,19,11,29.99,29.93,29.89,10,9,5,17,9,26,0.00,1,,308
2012-9-4,75,65,54,36,24,17,49,23,12,30.11,29.94,29.84,10,10,6,28,10,39,0.00,1,,326
2012-9-5,82,63,45,35,30,26,61,36,15,30.20,29.99,29.84,10,7,2,15,5,18,0.00,1,,204
2012-9-6,69,61,54,41,32,26,59,36,27,30.16,30.00,29.83,10,7,1,23,10,34,0.00,3,,332
2012-9-7,71,58,46,46,41,37,89,59,30,30.34,30.24,30.16,10,8,2,8,5,,0.02,3,Rain,294
2012-9-8,80,64,48,36,29,22,52,29,17,30.27,30.20,30.09,10,10,6,10,6,,0.00,0,,293
2012-9-9,90,72,55,27,22,18,30,17,8,30.06,29.88,29.70,10,10,10,13,7,,0.00,0,,234
2012-9-10,91,78,66,37,31,18,27,19,11,29.89,29.70,29.62,10,10,9,24,11,38,0.00,0,,249
2012-9-11,70,60,46,30,28,20,44,31,15,30.12,29.91,29.71,10,10,8,22,12,30,0.00,0,,344
2012-9-12,66,52,39,28,22,19,51,33,17,30.35,30.24,30.12,10,10,6,12,7,,0.00,0,,304
2012-9-13,73,56,39,22,17,13,41,23,12,30.39,30.36,30.31,10,10,10,10,6,,0.00,0,,282
2012-9-14,87,68,48,24,19,16,32,19,8,30.35,30.18,30.03,10,9,3,9,5,17,0.00,0,,217
2012-9-15,87,73,59,20,12,4,17,12,5,30.11,29.99,29.90,10,8,2,16,8,20,0.00,0,,259
2012-9-16,73,62,50,44,24,12,74,29,15,30.16,30.04,29.91,10,7,1,28,12,40,0.00,3,Rain,324
2012-9-17,66,52,39,38,33,27,82,50,23,30.21,30.13,30.06,10,10,10,18,8,26,0.00,1,,301
2012-9-18,78,62,46,31,30,28,50,29,19,30.05,29.96,29.86,10,10,9,18,6,26,0.00,0,,297
2012-9-19,70,61,50,31,28,23,43,30,21,30.15,30.05,29.88,10,10,10,23,11,37,0.00,0,,318
2012-9-20,73,64,54,32,29,25,38,27,20,30.07,30.03,29.99,10,10,10,25,10,38,0.00,0,,330
2012-9-21,75,62,48,34,31,29,50,34,19,30.14,30.09,30.04,10,10,10,28,9,38,0.00,0,,331
2012-9-22,77,62,46,33,30,28,50,33,17,30.17,30.12,30.05,10,10,10,7,4,,0.00,0,,174
2012-9-23,75,60,48,33,31,29,48,34,22,30.09,30.03,29.99,10,10,10,9,5,,0.00,0,,155
2012-9-24,77,64,52,35,32,29,47,32,19,29.98,29.92,29.85,10,10,8,9,4,,0.00,0,,275
2012-9-25,78,63,51,32,29,27,44,31,18,29.92,29.87,29.84,10,10,10,10,4,,0.00,0,,256
2012-9-26,77,64,51,47,35,26,67,38,21,30.04,29.97,29.89,10,10,7,22,8,26,0.03,1,Rain,208
2012-9-27,73,60,48,42,39,37,69,49,28,30.11,30.06,30.00,10,10,10,13,6,,0.00,0,,309
2012-9-28,80,63,48,46,39,35,61,46,21,30.07,29.99,29.88,10,10,3,15,4,22,0.08,1,Rain-Thunderstorm,170
2012-9-29,75,63,51,41,37,33,54,38,22,30.11,29.97,29.88,10,10,10,13,7,,0.00,3,,285
2012-9-30,73,63,53,38,36,32,53,39,27,30.22,30.09,30.03,10,10,10,21,12,29,0.00,2,,323